PILOTS ONLINE: 299    ATC ONLINE: 49

KCDC

Cedar City Regional Airport

Location

IATA CDC
City Cedar City
Country  United States
Latitude 37° 42' 3" N
Longitude 113° 5' 56" W
Elevation 5622 ft
Type Medium Airport

Map

Weather

METAR
2014/08/27 09:53
KCDC 270953Z AUTO 19003KT 10SM FEW110 11/07 A3023 RMK AO2 SLP178 T01110072
TAF
2014/08/27 07:39
TAF 
      AMD KCDC 270633Z 2707/2806 VRB05KT P6SM SCT080 BKN100 
     FM271800 24007KT P6SM SCT100 BKN120

Runways

02/20 8653 ft / 150 ft
08/26 4822 ft / 60 ft

Outbound flights

Callsign Flying to Pilot ATD/STD ETA Aircraft

Inbound flights

Callsign Flying from Pilot ATD ETA Aircraft